Time;durP1;ratioP1;P1;durP2;ratioP2;P2;SDS_P1;SDS_P2;PMS_P1;PMS_P2;Temp;Humidity;BMP_temperature;BMP_pressure;BME280_temperature;BME280_humidity;BME280_pressure;Samples;Min_cycle;Max_cycle;Signal;HPM_P1;HPM_P2
2023/02/15 00:01:40;;;;;;;43.78;19.20;;;1.90;92.20;;;;;;5031032;28;20444;-76
2023/02/15 00:04:07;;;;;;;41.70;18.33;;;1.80;92.20;;;;;;5012203;28;20201;-75
2023/02/15 00:06:33;;;;;;;46.57;19.80;;;1.70;92.30;;;;;;5032411;28;20423;-75
2023/02/15 00:08:59;;;;;;;39.28;18.88;;;1.70;92.50;;;;;;5034519;28;20939;-75
2023/02/15 00:11:40;;;;;;;40.60;19.10;;;1.70;92.60;;;;;;5014961;28;20194;-75
2023/02/15 00:14:12;;;;;;;38.17;19.23;;;1.70;92.60;;;;;;5040316;28;20614;-76
2023/02/15 00:16:39;;;;;;;38.13;17.50;;;1.70;92.70;;;;;;5028314;28;20440;-76
2023/02/15 00:19:05;;;;;;;47.53;18.85;;;1.70;92.70;;;;;;5035509;28;20459;-75
2023/02/15 00:21:33;;;;;;;40.30;18.33;;;1.70;92.60;;;;;;5035568;28;20558;-75
2023/02/15 00:24:00;;;;;;;46.35;20.38;;;1.70;92.60;;;;;;5012552;28;20542;-75
2023/02/15 00:26:26;;;;;;;51.33;21.48;;;1.70;92.50;;;;;;5038859;28;20193;-76
2023/02/15 00:28:51;;;;;;;44.00;20.65;;;1.60;92.50;;;;;;5035539;28;20242;-75
2023/02/15 00:31:17;;;;;;;40.03;19.67;;;1.50;92.40;;;;;;5013554;28;20185;-74
2023/02/15 00:33:43;;;;;;;44.30;20.33;;;1.50;92.50;;;;;;5029703;28;20231;-74
2023/02/15 00:36:10;;;;;;;38.50;18.30;;;1.50;92.50;;;;;;5030457;28;20261;-75
2023/02/15 00:38:36;;;;;;;39.03;19.63;;;1.50;92.60;;;;;;5037876;28;20246;-75
2023/02/15 00:41:04;;;;;;;39.97;20.23;;;1.50;92.70;;;;;;5033670;28;20424;-75
2023/02/15 00:43:31;;;;;;;41.35;17.48;;;1.40;92.70;;;;;;5028465;28;20447;-74
2023/02/15 00:45:56;;;;;;;45.73;18.63;;;1.40;92.80;;;;;;5032374;28;20181;-76
2023/02/15 00:48:22;;;;;;;42.60;20.23;;;1.40;92.80;;;;;;5036651;28;20443;-75
2023/02/15 00:50:56;;;;;;;47.00;20.20;;;1.40;92.80;;;;;;5034806;28;20181;-74
2023/02/15 00:53:23;;;;;;;38.88;17.42;;;1.40;92.70;;;;;;5033326;28;20461;-74
2023/02/15 00:55:48;;;;;;;43.15;17.67;;;1.40;92.80;;;;;;5032140;28;20243;-74
2023/02/15 00:58:15;;;;;;;45.13;18.00;;;1.40;92.70;;;;;;5032160;28;20202;-75
2023/02/15 01:00:43;;;;;;;37.90;17.73;;;1.40;92.60;;;;;;5032895;28;20188;-76
2023/02/15 01:03:09;;;;;;;45.72;22.17;;;1.40;92.70;;;;;;5029614;28;20781;-74
2023/02/15 01:05:35;;;;;;;44.67;20.10;;;1.30;92.70;;;;;;5007547;28;20189;-74
2023/02/15 01:08:01;;;;;;;43.80;20.20;;;1.30;92.70;;;;;;5035321;28;20181;-74
2023/02/15 01:10:27;;;;;;;43.83;18.70;;;1.30;92.70;;;;;;5016346;28;20178;-74
2023/02/15 01:12:54;;;;;;;36.33;18.37;;;1.30;92.80;;;;;;5033913;28;20187;-74
2023/02/15 01:15:20;;;;;;;39.75;19.23;;;1.30;92.80;;;;;;5032333;28;20450;-74
2023/02/15 01:17:51;;;;;;;43.17;17.27;;;1.30;93.00;;;;;;5034011;28;20204;-76
2023/02/15 01:20:17;;;;;;;45.55;19.80;;;1.30;92.80;;;;;;5033598;28;20185;-73
2023/02/15 01:22:43;;;;;;;37.28;18.40;;;1.30;92.80;;;;;;5032583;28;20197;-73
2023/02/15 01:25:08;;;;;;;39.00;18.90;;;1.30;92.80;;;;;;5035982;28;20213;-76
2023/02/15 01:27:34;;;;;;;46.60;20.03;;;1.30;92.80;;;;;;5030907;28;20197;-76
2023/02/15 01:30:00;;;;;;;50.10;20.00;;;1.30;92.80;;;;;;5050341;28;20223;-74
2023/02/15 01:32:26;;;;;;;46.37;21.17;;;1.20;93.00;;;;;;5031845;28;20224;-74
2023/02/15 01:34:52;;;;;;;44.10;20.10;;;1.20;93.10;;;;;;5034924;28;20228;-74
2023/02/15 01:37:18;;;;;;;42.43;21.57;;;1.30;93.10;;;;;;5029106;28;20213;-75
2023/02/15 01:39:43;;;;;;;42.83;21.40;;;1.30;93.20;;;;;;5013567;28;20428;-75
2023/02/15 01:42:12;;;;;;;41.60;21.30;;;1.30;93.10;;;;;;5031940;28;20173;-73
2023/02/15 01:44:52;;;;;;;56.40;23.33;;;1.30;93.10;;;;;;5032690;28;20201;-75
2023/02/15 01:47:40;;;;;;;64.38;25.42;;;1.30;93.00;;;;;;5042067;28;20284;-75
2023/02/15 01:50:21;;;;;;;55.30;23.52;;;1.30;92.80;;;;;;5037459;28;20188;-76
2023/02/15 01:52:55;;;;;;;54.97;24.90;;;1.20;92.80;;;;;;5029123;28;20200;-73
2023/02/15 01:55:23;;;;;;;48.75;21.90;;;1.10;92.90;;;;;;5036140;28;20538;-73
2023/02/15 01:57:50;;;;;;;54.55;24.10;;;1.10;93.00;;;;;;5044166;28;20200;-74
2023/02/15 02:00:17;;;;;;;49.60;22.95;;;1.20;93.10;;;;;;5015636;28;20182;-73
2023/02/15 02:02:44;;;;;;;55.65;24.00;;;1.10;93.00;;;;;;5014055;28;20173;-74
2023/02/15 02:05:10;;;;;;;45.78;19.08;;;1.10;93.00;;;;;;5029470;28;20664;-73
2023/02/15 02:07:43;;;;;;;44.77;21.27;;;1.10;93.00;;;;;;5049404;28;20193;-73
2023/02/15 02:10:12;;;;;;;46.95;21.00;;;1.00;92.90;;;;;;5044470;28;20215;-73
2023/02/15 02:12:40;;;;;;;51.40;22.42;;;1.00;92.90;;;;;;5040625;28;20215;-74
2023/02/15 02:15:07;;;;;;;43.42;17.63;;;1.00;92.80;;;;;;5040778;28;20260;-75
2023/02/15 02:17:51;;;;;;;41.05;20.02;;;1.00;92.90;;;;;;5040886;28;20304;-75
2023/02/15 02:20:37;;;;;;;42.70;20.02;;;1.00;92.90;;;;;;5037050;28;20200;-73
2023/02/15 02:23:24;;;;;;;44.47;19.43;;;1.00;92.90;;;;;;5041699;28;20197;-75
2023/02/15 02:26:34;;;;;;;48.70;18.88;;;1.00;92.90;;;;;;5049285;28;20408;-73
2023/02/15 02:29:32;;;;;;;38.13;18.63;;;0.90;93.00;;;;;;5006191;28;20189;-74
2023/02/15 02:32:14;;;;;;;41.60;20.10;;;0.90;93.00;;;;;;5039108;28;20182;-73
2023/02/15 02:34:59;;;;;;;45.67;19.92;;;1.00;93.10;;;;;;5036850;28;20197;-74
2023/02/15 02:37:51;;;;;;;39.63;18.90;;;1.00;93.00;;;;;;5025264;28;20217;-76
2023/02/15 02:40:25;;;;;;;44.35;19.85;;;1.00;92.90;;;;;;5047488;28;20185;-74
2023/02/15 02:43:02;;;;;;;45.60;21.23;;;0.90;92.80;;;;;;5039340;28;20233;-74
2023/02/15 02:45:35;;;;;;;45.85;20.17;;;0.80;92.70;;;;;;5033594;28;20623;-75
2023/02/15 02:48:15;;;;;;;39.05;18.30;;;0.80;92.70;;;;;;5052203;28;20191;-75
2023/02/15 02:50:41;;;;;;;42.30;19.80;;;0.80;92.70;;;;;;5041597;28;20314;-74
2023/02/15 02:53:09;;;;;;;36.43;18.00;;;0.80;92.70;;;;;;5033093;28;20213;-75
2023/02/15 02:55:47;;;;;;;45.28;19.75;;;0.70;92.80;;;;;;5050504;28;20430;-76
2023/02/15 02:58:31;;;;;;;51.65;22.85;;;0.70;92.80;;;;;;5042507;28;20224;-75
2023/02/15 03:01:23;;;;;;;42.50;20.15;;;0.70;92.70;;;;;;5014706;28;20189;-77
2023/02/15 03:04:15;;;;;;;38.42;18.77;;;0.70;92.70;;;;;;5024106;28;20213;-74
2023/02/15 03:06:50;;;;;;;46.13;20.98;;;0.60;92.70;;;;;;5030171;28;20190;-74
2023/02/15 03:09:41;;;;;;;44.20;20.17;;;0.60;92.80;;;;;;5039074;28;20674;-76
2023/02/15 03:12:14;;;;;;;38.80;20.75;;;0.60;92.90;;;;;;5014658;28;20564;-74
2023/02/15 03:14:42;;;;;;;37.15;19.67;;;0.60;92.90;;;;;;5009059;28;20209;-73
2023/02/15 03:17:09;;;;;;;45.38;20.65;;;0.60;93.00;;;;;;5026589;28;20553;-73
2023/02/15 03:19:38;;;;;;;44.75;19.85;;;0.60;93.10;;;;;;5030037;28;20260;-73
2023/02/15 03:22:09;;;;;;;46.47;20.08;;;0.60;93.10;;;;;;5034499;28;20169;-74
2023/02/15 03:24:41;;;;;;;51.85;20.83;;;0.60;93.10;;;;;;5028885;28;20209;-76
2023/02/15 03:27:11;;;;;;;50.28;20.85;;;0.50;93.10;;;;;;5032255;28;20181;-75
2023/02/15 03:29:37;;;;;;;47.90;20.98;;;0.50;93.20;;;;;;5024272;28;20181;-74
2023/02/15 03:32:06;;;;;;;49.78;20.95;;;0.60;93.30;;;;;;5030682;28;20182;-75
2023/02/15 03:34:33;;;;;;;45.40;19.92;;;0.60;93.30;;;;;;5028438;28;20197;-74
2023/02/15 03:37:03;;;;;;;48.47;20.45;;;0.50;93.30;;;;;;5034393;28;20228;-75
2023/02/15 03:39:41;;;;;;;45.70;21.80;;;0.50;93.30;;;;;;5034517;28;20181;-73
2023/02/15 03:42:13;;;;;;;46.17;20.65;;;0.50;93.30;;;;;;5030842;28;20191;-74
2023/02/15 03:45:03;;;;;;;46.90;20.95;;;0.50;93.30;;;;;;5012451;28;20232;-74
2023/02/15 03:47:37;;;;;;;51.80;23.15;;;0.50;93.30;;;;;;5015682;28;20558;-74
2023/02/15 03:51:33;;;;;;;47.17;22.13;;;0.50;93.30;;;;;;5010546;28;20181;-75
2023/02/15 03:52:58;;;;;;;55.53;23.75;;;0.50;93.40;;;;;;5021153;28;20245;-75
2023/02/15 03:55:24;;;;;;;44.20;23.05;;;0.50;93.40;;;;;;5041120;28;20277;-73
2023/02/15 04:03:42;;;;;;;56.90;23.35;;;0.50;93.30;;;;;;5045499;28;20217;-76
2023/02/15 04:06:07;;;;;;;46.15;23.50;;;0.40;93.20;;;;;;5033400;28;20547;-74
2023/02/15 04:11:17;;;;;;;47.30;20.38;;;0.40;93.20;;;;;;5030574;28;20287;-75
2023/02/15 04:13:43;;;;;;;50.73;22.70;;;0.30;93.10;;;;;;5033948;28;20703;-75
2023/02/15 04:16:09;;;;;;;45.77;22.30;;;0.30;93.20;;;;;;5040154;28;20182;-76
2023/02/15 04:26:56;;;;;;;52.25;21.48;;;0.20;93.20;;;;;;5026850;28;20188;-73
2023/02/15 04:29:22;;;;;;;45.93;22.03;;;0.20;93.20;;;;;;5031136;28;20201;-76
2023/02/15 04:31:48;;;;;;;52.28;23.15;;;0.20;93.20;;;;;;5039922;28;20803;-75
2023/02/15 04:34:15;;;;;;;43.90;19.63;;;0.20;93.20;;;;;;5028403;28;20209;-74
2023/02/15 04:36:40;;;;;;;47.42;22.17;;;0.10;93.10;;;;;;5048920;28;20443;-75
2023/02/15 04:39:07;;;;;;;39.13;19.07;;;0.10;93.00;;;;;;5019664;28;20592;-75
2023/02/15 04:41:33;;;;;;;39.30;19.70;;;0.10;93.10;;;;;;5036435;28;20197;-75
2023/02/15 04:44:00;;;;;;;46.83;21.20;;;0.10;93.10;;;;;;5045022;28;20205;-74
2023/02/15 04:46:26;;;;;;;45.63;20.67;;;0.10;93.00;;;;;;5027877;28;20181;-76
2023/02/15 04:48:52;;;;;;;51.30;21.65;;;0.00;93.00;;;;;;5037190;28;20186;-75
2023/02/15 04:51:17;;;;;;;44.43;21.33;;;0.00;93.00;;;;;;5045905;28;20528;-74
2023/02/15 04:53:43;;;;;;;42.73;20.20;;;0.00;93.00;;;;;;5037918;28;20205;-76
2023/02/15 04:56:08;;;;;;;41.33;19.73;;;0.00;93.10;;;;;;5038638;28;20184;-76
2023/02/15 04:58:35;;;;;;;54.60;23.23;;;0.00;93.20;;;;;;5016466;28;20217;-74
2023/02/15 05:01:01;;;;;;;50.50;22.15;;;0.00;93.10;;;;;;5035424;28;20182;-74
2023/02/15 05:03:26;;;;;;;42.17;20.20;;;0.00;93.10;;;;;;5037487;28;20208;-75
2023/02/15 05:05:52;;;;;;;44.03;19.30;;;0.00;93.10;;;;;;5037785;28;20416;-75
2023/02/15 05:08:17;;;;;;;44.73;20.00;;;-0.10;93.10;;;;;;5038531;28;20555;-75
2023/02/15 05:10:43;;;;;;;48.43;22.27;;;-0.10;93.10;;;;;;5042202;28;20184;-75
2023/02/15 05:13:08;;;;;;;43.43;20.37;;;-0.10;93.20;;;;;;5041840;28;20676;-76
2023/02/15 05:15:34;;;;;;;45.80;21.83;;;-0.10;93.20;;;;;;5061087;28;20181;-76
2023/02/15 05:18:01;;;;;;;57.37;24.67;;;-0.10;93.30;;;;;;5048910;28;20232;-74
2023/02/15 05:20:27;;;;;;;54.80;22.23;;;0.10;93.50;;;;;;5057692;28;20200;-77
2023/02/15 05:22:55;;;;;;;46.40;23.40;;;0.00;93.40;;;;;;5051001;28;20177;-73
2023/02/15 05:28:19;;;;;;;46.75;21.15;;;0.00;93.30;;;;;;5063851;28;20176;-75
2023/02/15 05:30:47;;;;;;;50.70;23.15;;;0.00;93.20;;;;;;5028132;28;20189;-76
2023/02/15 05:33:12;;;;;;;49.55;21.13;;;0.00;93.20;;;;;;5033393;28;20224;-75
2023/02/15 05:35:38;;;;;;;50.93;21.63;;;0.00;93.20;;;;;;5035267;28;20197;-76
2023/02/15 05:38:03;;;;;;;47.27;21.77;;;0.00;93.10;;;;;;5015208;28;20208;-75
2023/02/15 05:40:29;;;;;;;51.90;21.73;;;-0.10;93.00;;;;;;5032436;28;20181;-75
2023/02/15 05:42:56;;;;;;;45.63;19.63;;;-0.10;93.00;;;;;;5033113;28;20954;-75
2023/02/15 05:45:21;;;;;;;43.85;21.65;;;-0.10;92.90;;;;;;5023958;28;20953;-74
2023/02/15 05:47:47;;;;;;;48.63;23.27;;;0.00;92.90;;;;;;5031780;28;20208;-76
2023/02/15 05:50:13;;;;;;;50.93;20.90;;;-0.10;92.80;;;;;;5030685;28;20182;-75
2023/02/15 05:52:38;;;;;;;53.27;21.33;;;-0.10;92.70;;;;;;5028480;28;20196;-76
2023/02/15 05:55:05;;;;;;;48.13;19.37;;;-0.10;92.60;;;;;;5033454;28;20213;-74
2023/02/15 05:57:31;;;;;;;46.00;22.20;;;-0.20;92.60;;;;;;5033473;28;20208;-74
2023/02/15 05:59:56;;;;;;;53.75;21.02;;;-0.20;92.50;;;;;;5031841;28;20178;-76
2023/02/15 06:02:22;;;;;;;38.23;19.17;;;-0.20;92.50;;;;;;5028174;28;20239;-74
2023/02/15 06:04:48;;;;;;;50.20;21.33;;;-0.20;92.60;;;;;;5028272;28;20556;-74
2023/02/15 06:07:13;;;;;;;51.20;22.73;;;-0.30;92.50;;;;;;5015765;28;20184;-76
2023/02/15 06:09:39;;;;;;;44.60;20.77;;;-0.50;92.30;;;;;;5027453;28;20182;-76
2023/02/15 06:12:05;;;;;;;46.10;21.73;;;-0.60;92.30;;;;;;5028196;28;20268;-75
2023/02/15 06:14:30;;;;;;;48.37;21.93;;;-0.70;92.30;;;;;;5027939;28;20212;-75
2023/02/15 06:16:56;;;;;;;43.37;20.80;;;-0.70;92.40;;;;;;5027053;28;20423;-75
2023/02/15 06:19:22;;;;;;;48.27;21.77;;;-0.70;92.50;;;;;;5029956;28;20352;-76
2023/02/15 06:21:49;;;;;;;46.83;22.08;;;-0.70;92.60;;;;;;5027225;28;20239;-75
2023/02/15 06:24:14;;;;;;;42.45;20.48;;;-0.70;92.60;;;;;;5035577;28;20347;-74
2023/02/15 06:26:40;;;;;;;50.80;20.83;;;-0.80;92.60;;;;;;5010935;28;20724;-75
2023/02/15 06:29:06;;;;;;;44.50;21.63;;;-0.80;92.60;;;;;;5029682;28;20276;-77
2023/02/15 06:31:31;;;;;;;54.40;22.40;;;-0.80;92.60;;;;;;5024024;28;20827;-75
2023/02/15 06:34:00;;;;;;;50.40;21.90;;;-0.90;92.70;;;;;;5029057;28;20292;-75
2023/02/15 06:36:28;;;;;;;51.72;22.20;;;-0.90;92.80;;;;;;5032059;28;20210;-76
2023/02/15 06:38:54;;;;;;;50.05;22.52;;;-0.80;93.10;;;;;;5030402;28;20205;-74
2023/02/15 06:41:19;;;;;;;50.83;21.87;;;-0.80;93.20;;;;;;5032642;28;20185;-75
2023/02/15 06:43:45;;;;;;;49.80;20.70;;;-0.70;93.10;;;;;;5028380;28;20448;-76
2023/02/15 06:46:10;;;;;;;46.37;20.70;;;-0.70;93.10;;;;;;5028288;28;20554;-75
2023/02/15 06:48:36;;;;;;;48.17;22.77;;;-0.70;93.10;;;;;;5029214;28;20186;-75
2023/02/15 06:51:02;;;;;;;45.70;21.13;;;-0.70;93.00;;;;;;5029554;28;20252;-76
2023/02/15 06:53:27;;;;;;;51.53;22.50;;;-0.70;93.00;;;;;;5037924;28;20576;-75
2023/02/15 06:56:06;;;;;;;51.33;21.60;;;-0.70;92.90;;;;;;5032832;28;20188;-75
2023/02/15 06:58:42;;;;;;;42.58;20.52;;;-0.70;92.90;;;;;;5048370;28;20191;-75
2023/02/15 07:01:09;;;;;;;48.55;24.00;;;-0.70;93.00;;;;;;5038389;28;20173;-75
2023/02/15 07:03:35;;;;;;;43.50;22.80;;;-0.70;93.00;;;;;;5029315;28;20197;-75
2023/02/15 07:06:03;;;;;;;44.95;21.00;;;-0.70;93.00;;;;;;5031554;28;20181;-76
2023/02/15 07:08:29;;;;;;;47.22;20.58;;;-0.60;93.00;;;;;;5036834;28;20240;-76
2023/02/15 07:12:40;;;;;;;49.85;21.67;;;-0.70;92.90;;;;;;5038608;28;20253;-77
2023/02/15 07:13:44;;;;;;;57.47;23.80;;;-0.60;92.90;;;;;;5040038;28;20223;-76
2023/02/15 07:16:10;;;;;;;50.73;21.60;;;-0.70;92.80;;;;;;5043591;28;20208;-75
2023/02/15 07:18:36;;;;;;;47.33;22.60;;;-0.70;92.80;;;;;;5041237;28;20243;-74
2023/02/15 07:21:02;;;;;;;54.20;23.30;;;-0.70;92.80;;;;;;5051623;28;20185;-75
2023/02/15 07:23:28;;;;;;;61.50;24.00;;;-0.80;92.80;;;;;;5036331;28;20219;-75
2023/02/15 07:25:57;;;;;;;56.97;22.13;;;-1.00;92.70;;;;;;5042177;28;20204;-76
2023/02/15 07:28:23;;;;;;;61.80;24.52;;;-1.00;93.00;;;;;;5040317;28;20463;-75
2023/02/15 07:30:48;;;;;;;58.80;22.63;;;-1.10;93.10;;;;;;5018832;28;20652;-75
2023/02/15 07:33:23;;;;;;;54.10;22.93;;;-1.10;93.20;;;;;;5034646;28;20292;-74
2023/02/15 07:35:50;;;;;;;52.75;25.73;;;-1.20;93.40;;;;;;5040777;28;20632;-76
2023/02/15 07:38:16;;;;;;;59.67;24.40;;;-1.20;93.60;;;;;;5035696;28;20249;-75
2023/02/15 07:40:42;;;;;;;57.27;24.97;;;-1.10;93.80;;;;;;5034278;28;20260;-75
2023/02/15 07:43:08;;;;;;;59.55;25.85;;;-1.00;94.00;;;;;;5036292;28;20205;-77
2023/02/15 07:45:33;;;;;;;51.40;23.63;;;-0.90;94.10;;;;;;5033870;28;20174;-76
2023/02/15 07:48:01;;;;;;;54.80;22.83;;;-0.90;94.20;;;;;;5033460;28;20196;-75
2023/02/15 07:50:26;;;;;;;52.65;25.15;;;-0.90;94.10;;;;;;5027390;28;20189;-75
2023/02/15 07:52:52;;;;;;;61.73;25.03;;;-1.00;94.10;;;;;;5040066;28;20243;-76
2023/02/15 07:55:18;;;;;;;59.63;25.50;;;-1.10;94.10;;;;;;5014719;28;20239;-77
2023/02/15 07:57:45;;;;;;;56.85;26.05;;;-1.10;94.30;;;;;;5039712;28;20279;-74
2023/02/15 08:00:24;;;;;;;58.95;24.65;;;-1.10;94.40;;;;;;5038870;28;20192;-76
2023/02/15 08:03:13;;;;;;;52.30;24.38;;;-1.10;94.50;;;;;;5029901;28;20640;-75
2023/02/15 08:05:43;;;;;;;63.40;26.85;;;-1.00;94.70;;;;;;5035991;28;20183;-76
2023/02/15 08:08:29;;;;;;;59.97;25.13;;;-1.00;94.80;;;;;;5035305;28;20181;-77
2023/02/15 08:11:25;;;;;;;60.47;25.38;;;-1.00;94.90;;;;;;5033785;28;20195;-76
2023/02/15 08:14:02;;;;;;;63.00;26.30;;;-0.90;94.80;;;;;;5027910;28;20224;-77
2023/02/15 08:16:41;;;;;;;63.00;24.23;;;-0.90;94.90;;;;;;5016572;28;20191;-77
2023/02/15 08:19:08;;;;;;;60.22;26.38;;;-0.90;94.90;;;;;;5032990;28;20676;-77
2023/02/15 08:21:36;;;;;;;72.32;26.73;;;-0.80;94.90;;;;;;5033113;28;20189;-77
2023/02/15 08:24:03;;;;;;;58.80;26.23;;;-0.80;94.90;;;;;;5030824;28;20209;-77
2023/02/15 08:26:29;;;;;;;61.97;25.60;;;-0.60;95.00;;;;;;5015205;28;20173;-76
2023/02/15 08:28:55;;;;;;;57.70;25.95;;;-0.50;95.00;;;;;;5032576;28;20190;-76
2023/02/15 08:31:21;;;;;;;58.60;25.13;;;-0.40;95.00;;;;;;5033538;28;20247;-77
2023/02/15 08:33:49;;;;;;;59.53;28.33;;;-0.20;95.00;;;;;;5027572;28;20951;-77
2023/02/15 08:36:18;;;;;;;62.22;25.73;;;-0.10;94.80;;;;;;5034828;28;20189;-77
2023/02/15 08:38:44;;;;;;;64.32;25.58;;;0.00;94.70;;;;;;5036562;28;20216;-76
2023/02/15 08:41:18;;;;;;;55.50;26.77;;;0.00;94.40;;;;;;5021394;28;20209;-77
2023/02/15 08:43:45;;;;;;;57.15;24.98;;;0.10;94.00;;;;;;5021143;28;20224;-75
2023/02/15 08:46:12;;;;;;;63.22;26.17;;;0.10;93.70;;;;;;5040113;28;20231;-75
2023/02/15 08:48:38;;;;;;;54.67;24.35;;;0.30;93.60;;;;;;5040054;28;20249;-77
2023/02/15 08:51:21;;;;;;;60.60;25.37;;;0.30;93.20;;;;;;5023423;28;20614;-76
2023/02/15 08:53:50;;;;;;;52.42;23.98;;;0.30;92.90;;;;;;5017060;28;20653;-77
2023/02/15 08:56:17;;;;;;;59.20;24.30;;;0.30;92.60;;;;;;5030239;28;20276;-77
2023/02/15 08:58:43;;;;;;;58.42;25.67;;;0.30;92.20;;;;;;5031063;28;20201;-78
2023/02/15 09:01:17;;;;;;;61.43;23.97;;;0.40;92.20;;;;;;5033572;28;20284;-76
2023/02/15 09:03:44;;;;;;;54.90;21.85;;;0.50;92.30;;;;;;5035097;28;20611;-74
2023/02/15 09:06:10;;;;;;;54.58;25.92;;;0.60;92.10;;;;;;5036283;28;20185;-76
2023/02/15 09:08:36;;;;;;;57.35;25.85;;;0.60;92.00;;;;;;5029015;28;20269;-76
2023/02/15 09:11:06;;;;;;;59.83;25.80;;;0.50;91.90;;;;;;5019656;28;20201;-75
2023/02/15 09:13:32;;;;;;;53.35;26.27;;;0.50;91.90;;;;;;5038734;28;20208;-76
2023/02/15 09:16:07;;;;;;;56.93;27.53;;;0.60;91.90;;;;;;5033923;28;20181;-77
2023/02/15 09:18:38;;;;;;;58.22;26.95;;;0.70;91.90;;;;;;5032392;28;20459;-76
2023/02/15 09:21:10;;;;;;;56.22;24.67;;;0.70;91.80;;;;;;5034484;28;20181;-75
2023/02/15 09:23:36;;;;;;;54.92;25.02;;;0.70;91.80;;;;;;5036690;28;20204;-76
2023/02/15 09:26:04;;;;;;;57.00;26.80;;;0.70;91.60;;;;;;5028536;28;20257;-76
2023/02/15 09:28:29;;;;;;;59.90;25.27;;;0.60;91.50;;;;;;5038769;28;20712;-76
2023/02/15 09:30:55;;;;;;;49.17;24.00;;;0.60;91.50;;;;;;5028139;28;20272;-76
2023/02/15 09:33:21;;;;;;;51.30;22.57;;;0.70;91.50;;;;;;5038509;28;20348;-75
2023/02/15 09:35:47;;;;;;;53.80;24.02;;;0.80;91.50;;;;;;5035663;28;20427;-76
2023/02/15 09:38:14;;;;;;;57.57;25.23;;;0.90;91.50;;;;;;5036640;28;20217;-75
2023/02/15 09:40:49;;;;;;;54.75;26.90;;;1.00;91.50;;;;;;5033098;28;20181;-75
2023/02/15 09:43:34;;;;;;;59.58;26.85;;;1.00;91.20;;;;;;5037926;28;20219;-75
2023/02/15 09:46:19;;;;;;;53.45;24.17;;;1.10;91.00;;;;;;5033467;28;20200;-77
2023/02/15 09:48:55;;;;;;;56.97;24.63;;;1.20;91.00;;;;;;5030210;28;20182;-75
2023/02/15 09:51:36;;;;;;;50.83;23.27;;;1.30;90.90;;;;;;5033849;28;20189;-75
2023/02/15 09:54:37;;;;;;;55.65;25.90;;;1.40;90.60;;;;;;5012703;28;20276;-75
2023/02/15 09:57:23;;;;;;;58.13;24.27;;;1.50;90.40;;;;;;5033444;28;20240;-74
2023/02/15 10:00:12;;;;;;;52.58;24.20;;;1.50;89.60;;;;;;4986827;28;20208;-75
2023/02/15 10:03:04;;;;;;;56.65;27.58;;;1.50;89.50;;;;;;5009109;28;20192;-75
2023/02/15 10:05:40;;;;;;;49.65;24.83;;;1.60;89.50;;;;;;5038921;28;20184;-74
2023/02/15 10:08:27;;;;;;;56.95;24.95;;;1.60;89.30;;;;;;5028308;28;20211;-76
2023/02/15 10:14:12;;;;;;;55.08;24.65;;;1.80;89.30;;;;;;5040125;28;20235;-75
2023/02/15 10:17:02;;;;;;;52.53;23.88;;;2.00;88.90;;;;;;5017905;28;20185;-74
2023/02/15 10:19:57;;;;;;;50.00;24.45;;;2.10;88.60;;;;;;4988560;28;20726;-75
2023/02/15 10:22:38;;;;;;;53.07;23.83;;;2.20;88.10;;;;;;5032064;28;20181;-75
2023/02/15 10:25:25;;;;;;;56.67;24.95;;;2.30;87.40;;;;;;5032514;28;21122;-76
2023/02/15 10:27:51;;;;;;;59.42;25.83;;;2.40;87.00;;;;;;5010940;28;20962;-75
2023/02/15 10:30:48;;;;;;;54.93;24.40;;;2.40;86.60;;;;;;5030981;28;20243;-75
2023/02/15 10:33:42;;;;;;;56.17;24.55;;;2.60;86.50;;;;;;5030522;28;20211;-75
2023/02/15 10:36:16;;;;;;;53.08;23.27;;;2.60;86.00;;;;;;5027884;28;20197;-76
2023/02/15 10:39:07;;;;;;;50.57;25.47;;;2.70;86.00;;;;;;5035551;28;20257;-75
2023/02/15 10:41:53;;;;;;;47.63;24.33;;;2.90;86.00;;;;;;5025870;28;20477;-74
2023/02/15 10:44:27;;;;;;;46.87;23.87;;;3.20;85.20;;;;;;5031230;28;20202;-75
2023/02/15 10:47:24;;;;;;;44.47;24.03;;;3.60;84.10;;;;;;5029560;28;20618;-75
2023/02/15 10:50:40;;;;;;;43.00;21.27;;;4.00;81.90;;;;;;5021115;28;20826;-75
2023/02/15 10:53:15;;;;;;;42.77;21.97;;;4.70;82.20;;;;;;4979808;28;20479;-75
2023/02/15 10:56:03;;;;;;;49.77;22.13;;;5.50;80.20;;;;;;5014820;28;20458;-75
2023/02/15 10:58:50;;;;;;;45.70;22.80;;;6.30;76.70;;;;;;5013677;28;20966;-76
2023/02/15 11:01:36;;;;;;;56.60;23.57;;;6.80;73.90;;;;;;5011061;28;20423;-75
2023/02/15 11:04:02;;;;;;;40.63;21.97;;;7.20;71.70;;;;;;5019153;28;20559;-75
2023/02/15 11:06:28;;;;;;;40.40;21.20;;;6.90;71.00;;;;;;5031865;28;20948;-75
2023/02/15 11:09:08;;;;;;;41.10;21.67;;;6.80;71.60;;;;;;5036581;28;20184;-76
2023/02/15 11:11:39;;;;;;;47.30;22.23;;;7.00;71.70;;;;;;5030917;28;20423;-76
2023/02/15 11:14:36;;;;;;;37.83;21.23;;;7.30;72.40;;;;;;5030740;28;20454;-75
2023/02/15 11:17:14;;;;;;;41.77;21.30;;;7.60;70.40;;;;;;5031410;28;20442;-75
2023/02/15 11:19:58;;;;;;;39.50;20.53;;;8.10;70.20;;;;;;5026608;28;20830;-75
2023/02/15 11:22:24;;;;;;;40.87;21.47;;;8.50;68.90;;;;;;5024822;28;21015;-76
2023/02/15 11:24:51;;;;;;;39.43;21.03;;;9.00;69.10;;;;;;5028617;28;20482;-75
2023/02/15 11:27:21;;;;;;;38.70;20.90;;;8.90;66.40;;;;;;5039580;28;20473;-76
2023/02/15 11:30:13;;;;;;;40.93;21.50;;;9.00;67.30;;;;;;5030247;28;20499;-75
2023/02/15 11:32:45;;;;;;;48.70;22.93;;;8.60;66.90;;;;;;5041591;28;20447;-76
2023/02/15 11:35:14;;;;;;;42.63;21.73;;;8.30;68.50;;;;;;5034953;28;20479;-75
2023/02/15 11:37:57;;;;;;;47.50;23.40;;;8.40;68.90;;;;;;5031460;28;20545;-77
2023/02/15 11:40:27;;;;;;;37.97;21.73;;;8.60;68.80;;;;;;5033880;28;20459;-75
2023/02/15 11:42:57;;;;;;;32.57;21.33;;;9.10;68.50;;;;;;5037099;28;20416;-77
2023/02/15 11:45:29;;;;;;;45.97;22.93;;;9.60;66.90;;;;;;5031523;28;20436;-75
2023/02/15 11:47:56;;;;;;;43.40;23.30;;;9.90;65.70;;;;;;5030995;28;20497;-75
2023/02/15 11:50:32;;;;;;;43.90;22.40;;;9.80;64.80;;;;;;5029710;28;20430;-75
2023/02/15 11:53:01;;;;;;;42.40;22.63;;;9.60;65.10;;;;;;5028418;28;20451;-75
2023/02/15 11:55:30;;;;;;;45.90;23.10;;;9.30;66.00;;;;;;5033328;28;20420;-76
2023/02/15 11:58:25;;;;;;;45.83;22.70;;;9.30;66.30;;;;;;5033984;28;20462;-75
2023/02/15 12:01:15;;;;;;;43.17;23.00;;;9.40;66.70;;;;;;5029783;28;20408;-76
2023/02/15 12:03:51;;;;;;;40.43;20.87;;;9.70;66.30;;;;;;5030313;28;20808;-75
2023/02/15 12:06:27;;;;;;;46.77;23.33;;;9.80;65.30;;;;;;5038419;28;20419;-75
2023/02/15 12:09:00;;;;;;;39.70;22.93;;;9.60;65.60;;;;;;5007798;28;20434;-75
2023/02/15 12:11:39;;;;;;;48.97;23.50;;;9.80;65.80;;;;;;5031053;28;20432;-75
2023/02/15 12:14:09;;;;;;;43.57;23.30;;;9.90;65.70;;;;;;5037820;28;20570;-75
2023/02/15 12:16:43;;;;;;;42.07;23.50;;;9.90;64.80;;;;;;5027669;28;20419;-75
2023/02/15 12:19:31;;;;;;;38.60;22.20;;;9.80;65.30;;;;;;5034062;28;20463;-75
2023/02/15 12:21:59;;;;;;;45.60;24.10;;;9.70;65.60;;;;;;5029378;28;20416;-75
2023/02/15 12:24:36;;;;;;;45.17;24.70;;;9.70;65.80;;;;;;5036662;28;20537;-75
2023/02/15 12:27:06;;;;;;;39.47;21.43;;;9.70;65.80;;;;;;5023380;28;20427;-75
2023/02/15 12:29:41;;;;;;;36.77;21.77;;;9.80;65.70;;;;;;5026774;28;20946;-75
2023/02/15 12:32:39;;;;;;;36.57;22.17;;;10.00;65.80;;;;;;5015261;28;20435;-75
2023/02/15 12:35:14;;;;;;;41.47;23.40;;;10.30;64.50;;;;;;5014659;28;20471;-75
2023/02/15 12:38:03;;;;;;;45.80;22.50;;;10.50;64.50;;;;;;5015387;28;20938;-75
2023/02/15 12:40:30;;;;;;;41.10;22.63;;;10.70;63.50;;;;;;5034877;28;20417;-75
2023/02/15 12:42:55;;;;;;;44.47;23.67;;;10.60;63.20;;;;;;5040044;28;20443;-77
2023/02/15 12:45:24;;;;;;;46.20;23.00;;;10.70;63.50;;;;;;5032299;28;21114;-74
2023/02/15 12:48:17;;;;;;;45.13;23.07;;;10.70;63.80;;;;;;5031274;28;20189;-76
2023/02/15 12:50:48;;;;;;;41.47;22.40;;;10.80;64.10;;;;;;5021837;28;20939;-77
2023/02/15 12:53:33;;;;;;;51.23;24.03;;;10.90;64.20;;;;;;5011965;28;20471;-75
2023/02/15 12:56:01;;;;;;;39.47;23.00;;;11.00;63.90;;;;;;5012284;28;20788;-76
2023/02/15 12:58:34;;;;;;;42.70;23.37;;;10.90;63.80;;;;;;5036004;28;20467;-75
2023/02/15 13:01:12;;;;;;;51.83;24.67;;;11.00;64.20;;;;;;5031565;28;20451;-75
2023/02/15 13:04:02;;;;;;;43.90;25.07;;;11.10;63.80;;;;;;5030992;28;20523;-75
2023/02/15 13:06:32;;;;;;;43.37;23.23;;;11.10;63.50;;;;;;5034071;28;20423;-75
2023/02/15 13:09:07;;;;;;;44.60;24.20;;;10.90;64.10;;;;;;5037684;28;20904;-76
2023/02/15 13:11:34;;;;;;;47.80;24.60;;;11.00;64.20;;;;;;5034029;28;20466;-75
2023/02/15 13:14:26;;;;;;;47.27;24.93;;;11.10;64.10;;;;;;5011058;28;20486;-76
2023/02/15 13:16:56;;;;;;;53.70;24.00;;;11.30;63.50;;;;;;5021159;28;20471;-75
2023/02/15 13:19:42;;;;;;;45.00;23.73;;;11.40;63.50;;;;;;5016769;28;20471;-75
2023/02/15 13:22:14;;;;;;;44.13;24.10;;;11.50;62.80;;;;;;5032253;28;20455;-75